Time;durP1;ratioP1;P1;durP2;ratioP2;P2;SDS_P1;SDS_P2;PMS_P1;PMS_P2;Temp;Humidity;BMP_temperature;BMP_pressure;BME280_temperature;BME280_humidity;BME280_pressure;Samples;Min_cycle;Max_cycle;Signal;HPM_P1;HPM_P2
2022/02/01 00:00:45;;;;;;;20.40;5.20;;;;;;;;;;5054562;28;20536;-64
2022/02/01 00:03:15;;;;;;;17.88;5.53;;;;;;;;;;5054317;28;20708;-66
2022/02/01 00:05:48;;;;;;;18.92;4.88;;;;;;;;;;5054637;28;20194;-65
2022/02/01 00:08:25;;;;;;;34.38;4.65;;;;;;;;;;5054772;28;20612;-65
2022/02/01 00:11:02;;;;;;;11.93;3.42;;;;;;;;;;5054933;28;20187;-66
2022/02/01 00:13:39;;;;;;;17.63;3.78;;;;;;;;;;5055000;28;20193;-65
2022/02/01 00:16:35;;;;;;;14.93;4.20;;;;;;;;;;5054487;28;20586;-65
2022/02/01 00:33:20;;;;;;;19.92;5.00;;;;;;;;;;5053398;28;20275;-66
2022/02/01 00:35:53;;;;;;;16.50;5.20;;;;;;;;;;5053884;28;20197;-65
2022/02/01 00:38:24;;;;;;;7.93;3.13;;;;;;;;;;5054353;28;20550;-65
2022/02/01 00:40:57;;;;;;;11.35;4.10;;;;;;;;;;5054078;28;20284;-65
2022/02/01 00:43:26;;;;;;;13.65;3.42;;;;;;;;;;5053899;28;20210;-65
2022/02/01 00:45:53;;;;;;;7.93;4.00;;;;;;;;;;5053870;28;20263;-66
2022/02/01 00:48:20;;;;;;;11.07;2.97;;;;;;;;;;5053571;28;20297;-65
2022/02/01 00:50:47;;;;;;;19.83;3.85;;;;;;;;;;5053861;28;20233;-65
2022/02/01 00:53:15;;;;;;;13.75;3.92;;;;;;;;;;5053471;28;20288;-65
2022/02/01 00:55:42;;;;;;;13.52;3.25;;;;;;;;;;5053681;28;20336;-65
2022/02/01 00:58:10;;;;;;;9.77;3.53;;;;;;;;;;5053712;28;20230;-65
2022/02/01 01:00:39;;;;;;;14.65;3.40;;;;;;;;;;5053775;28;20195;-65
2022/02/01 01:03:06;;;;;;;14.35;3.20;;;;;;;;;;5053657;28;20232;-65
2022/02/01 01:05:33;;;;;;;6.20;1.98;;;;;;;;;;5054210;28;20229;-65
2022/02/01 01:08:01;;;;;;;11.55;4.65;;;;;;;;;;5053514;28;20247;-65
2022/02/01 01:10:28;;;;;;;8.30;3.28;;;;;;;;;;5053310;28;20201;-65
2022/02/01 01:13:05;;;;;;;19.05;4.55;;;;;;;;;;5053299;28;20241;-65
2022/02/01 01:15:34;;;;;;;11.27;3.15;;;;;;;;;;5053830;28;20194;-65
2022/02/01 01:46:04;;;;;;;11.98;3.63;;;;;;;;;;5057450;28;20211;-65
2022/02/01 01:54:15;;;;;;;12.02;3.50;;;;;;;;;;5055925;28;20197;-65
2022/02/01 01:56:43;;;;;;;13.00;3.50;;;;;;;;;;5057288;28;20187;-66
2022/02/01 01:59:11;;;;;;;11.38;3.58;;;;;;;;;;5057486;28;20195;-66
2022/02/01 02:01:40;;;;;;;24.10;3.78;;;;;;;;;;5056689;28;20232;-66
2022/02/01 02:04:08;;;;;;;18.70;4.28;;;;;;;;;;5057036;28;20709;-66
2022/02/01 02:06:37;;;;;;;13.63;3.90;;;;;;;;;;5056594;28;20205;-65
2022/02/01 02:09:07;;;;;;;12.73;3.25;;;;;;;;;;5056562;28;20200;-65
2022/02/01 02:11:41;;;;;;;13.65;3.28;;;;;;;;;;5056490;28;20192;-66
2022/02/01 02:14:20;;;;;;;20.13;4.35;;;;;;;;;;5056941;28;20203;-66
2022/02/01 02:16:49;;;;;;;14.48;3.08;;;;;;;;;;5057106;28;20204;-65
2022/02/01 02:19:17;;;;;;;11.82;3.85;;;;;;;;;;5059769;28;20296;-65
2022/02/01 02:21:49;;;;;;;13.77;2.60;;;;;;;;;;5056695;28;20195;-67
2022/02/01 02:24:16;;;;;;;20.85;3.75;;;;;;;;;;5056258;28;20298;-65
2022/02/01 02:26:44;;;;;;;12.45;3.10;;;;;;;;;;5057126;28;20527;-65
2022/02/01 02:29:12;;;;;;;24.00;4.35;;;;;;;;;;5056579;28;20595;-65
2022/02/01 02:31:40;;;;;;;24.48;3.75;;;;;;;;;;5056533;28;20239;-65
2022/02/01 02:34:10;;;;;;;13.07;3.50;;;;;;;;;;5056579;28;20231;-65
2022/02/01 02:36:43;;;;;;;21.20;4.28;;;;;;;;;;5056103;28;20221;-65
2022/02/01 02:39:22;;;;;;;20.80;4.60;;;;;;;;;;5056763;28;20187;-65
2022/02/01 02:41:53;;;;;;;9.27;2.85;;;;;;;;;;5056784;28;20191;-65
2022/02/01 02:47:06;;;;;;;11.68;3.08;;;;;;;;;;5055893;28;20202;-65
2022/02/01 02:49:33;;;;;;;3.72;2.30;;;;;;;;;;5056159;28;20233;-64
2022/02/01 02:52:00;;;;;;;12.90;3.25;;;;;;;;;;5056089;28;20192;-65
2022/02/01 02:54:29;;;;;;;24.02;4.03;;;;;;;;;;5055486;28;20295;-65
2022/02/01 02:56:57;;;;;;;8.27;2.45;;;;;;;;;;5055197;28;20183;-64
2022/02/01 02:59:25;;;;;;;7.90;2.90;;;;;;;;;;5055911;28;20283;-65
2022/02/01 03:01:52;;;;;;;14.20;3.00;;;;;;;;;;5055914;28;20202;-65
2022/02/01 03:04:21;;;;;;;16.30;3.53;;;;;;;;;;5056184;28;20222;-65
2022/02/01 03:06:48;;;;;;;11.52;2.92;;;;;;;;;;5055453;28;20204;-65
2022/02/01 03:09:18;;;;;;;31.85;4.07;;;;;;;;;;5055431;28;20198;-65
2022/02/01 03:11:46;;;;;;;12.23;2.78;;;;;;;;;;5055730;28;20220;-65
2022/02/01 03:14:23;;;;;;;8.57;2.38;;;;;;;;;;5055682;28;20292;-65
2022/02/01 03:16:58;;;;;;;9.82;2.80;;;;;;;;;;5055508;28;20197;-66
2022/02/01 03:22:10;;;;;;;15.30;2.80;;;;;;;;;;5055352;28;20184;-66
2022/02/01 03:24:37;;;;;;;11.32;3.28;;;;;;;;;;5055387;28;20310;-65
2022/02/01 03:27:06;;;;;;;16.35;3.25;;;;;;;;;;5055418;28;20190;-65
2022/02/01 03:29:34;;;;;;;13.88;3.40;;;;;;;;;;5055134;28;20203;-65
2022/02/01 03:32:01;;;;;;;7.22;2.95;;;;;;;;;;5055340;28;20238;-66
2022/02/01 03:34:28;;;;;;;5.38;2.22;;;;;;;;;;5055424;28;20288;-65
2022/02/01 03:36:56;;;;;;;15.07;4.15;;;;;;;;;;5054871;28;20208;-66
2022/02/01 03:39:23;;;;;;;9.25;3.83;;;;;;;;;;5055634;28;20281;-65
2022/02/01 03:41:52;;;;;;;10.10;2.20;;;;;;;;;;5055691;28;20252;-65
2022/02/01 03:44:21;;;;;;;9.75;3.13;;;;;;;;;;5055170;28;20226;-65
2022/02/01 03:46:59;;;;;;;18.15;3.30;;;;;;;;;;5054881;28;20246;-65
2022/02/01 03:49:26;;;;;;;10.90;3.00;;;;;;;;;;5055067;28;20185;-65
2022/02/01 03:51:58;;;;;;;7.85;2.10;;;;;;;;;;5055002;28;20616;-65
2022/02/01 03:54:25;;;;;;;7.65;2.03;;;;;;;;;;5055408;28;20569;-65
2022/02/01 03:56:52;;;;;;;23.65;4.78;;;;;;;;;;5055397;28;20274;-66
2022/02/01 03:59:22;;;;;;;6.35;2.58;;;;;;;;;;5055026;28;20279;-65
2022/02/01 04:01:50;;;;;;;14.73;3.97;;;;;;;;;;5055208;28;20343;-66
2022/02/01 04:04:17;;;;;;;15.93;3.85;;;;;;;;;;5054600;28;20224;-65
2022/02/01 04:06:44;;;;;;;21.10;4.00;;;;;;;;;;5053597;28;20288;-65
2022/02/01 04:09:12;;;;;;;8.60;3.20;;;;;;;;;;5054461;28;20259;-65
2022/02/01 04:11:39;;;;;;;10.07;2.40;;;;;;;;;;5054257;28;20210;-64
2022/02/01 04:14:07;;;;;;;21.48;3.22;;;;;;;;;;5054496;28;20559;-64
2022/02/01 04:16:35;;;;;;;15.25;3.13;;;;;;;;;;5054950;28;20202;-65
2022/02/01 04:19:05;;;;;;;3.50;1.83;;;;;;;;;;5054108;28;20201;-65
2022/02/01 04:21:32;;;;;;;9.95;2.42;;;;;;;;;;5054321;28;20201;-64
2022/02/01 04:23:59;;;;;;;19.92;3.17;;;;;;;;;;5054546;28;20217;-65
2022/02/01 04:26:26;;;;;;;12.77;3.38;;;;;;;;;;5053946;28;20196;-65
2022/02/01 04:28:53;;;;;;;8.80;2.50;;;;;;;;;;5054280;28;20291;-64
2022/02/01 04:31:21;;;;;;;17.35;3.05;;;;;;;;;;5053890;28;20717;-65
2022/02/01 04:33:49;;;;;;;5.85;2.53;;;;;;;;;;5054565;28;20205;-65
2022/02/01 04:36:17;;;;;;;11.88;2.90;;;;;;;;;;5054207;28;20290;-65
2022/02/01 04:38:52;;;;;;;9.60;2.83;;;;;;;;;;5053760;28;20257;-65
2022/02/01 04:41:19;;;;;;;11.25;2.80;;;;;;;;;;5054169;28;20715;-64
2022/02/01 04:43:47;;;;;;;19.30;3.30;;;;;;;;;;5053953;28;20612;-64
2022/02/01 04:46:14;;;;;;;16.05;2.58;;;;;;;;;;5054102;28;20209;-65
2022/02/01 04:48:42;;;;;;;8.00;2.20;;;;;;;;;;5053941;28;20199;-66
2022/02/01 04:51:10;;;;;;;8.95;2.35;;;;;;;;;;5053971;28;20263;-65
2022/02/01 04:53:37;;;;;;;10.48;2.88;;;;;;;;;;5053634;28;20286;-65
2022/02/01 04:56:05;;;;;;;13.85;3.10;;;;;;;;;;5053459;28;20313;-63
2022/02/01 04:58:32;;;;;;;11.00;3.17;;;;;;;;;;5053816;28;20194;-63
2022/02/01 05:01:00;;;;;;;16.77;3.78;;;;;;;;;;5054066;28;20227;-64
2022/02/01 05:03:27;;;;;;;6.13;2.50;;;;;;;;;;5053287;28;20225;-63
2022/02/01 05:05:56;;;;;;;7.65;2.70;;;;;;;;;;5052499;28;20203;-64
2022/02/01 05:08:26;;;;;;;3.50;2.00;;;;;;;;;;5052687;28;20254;-63
2022/02/01 05:10:53;;;;;;;11.43;3.90;;;;;;;;;;5052998;28;20199;-63
2022/02/01 05:16:09;;;;;;;9.38;3.03;;;;;;;;;;5052619;28;20183;-63
2022/02/01 05:18:45;;;;;;;14.27;2.60;;;;;;;;;;5053049;28;20545;-65
2022/02/01 05:21:18;;;;;;;11.07;2.60;;;;;;;;;;5053009;28;20188;-64
2022/02/01 05:23:47;;;;;;;13.48;3.28;;;;;;;;;;5052870;28;20258;-63
2022/02/01 05:26:14;;;;;;;10.02;2.90;;;;;;;;;;5052630;28;20245;-64
2022/02/01 05:28:42;;;;;;;9.77;3.22;;;;;;;;;;5052502;28;20712;-64
2022/02/01 05:31:10;;;;;;;9.23;2.40;;;;;;;;;;5053862;28;20294;-63
2022/02/01 05:33:37;;;;;;;7.43;2.50;;;;;;;;;;5052787;28;20572;-63
2022/02/01 05:36:05;;;;;;;8.98;2.25;;;;;;;;;;5052370;28;20595;-64
2022/02/01 05:38:33;;;;;;;14.18;2.97;;;;;;;;;;5053188;28;20205;-63
2022/02/01 05:41:02;;;;;;;9.38;2.38;;;;;;;;;;5052737;28;20238;-63
2022/02/01 05:43:29;;;;;;;11.43;3.45;;;;;;;;;;5052841;28;20216;-63
2022/02/01 05:45:57;;;;;;;10.85;2.95;;;;;;;;;;5052555;28;20209;-64
2022/02/01 05:48:25;;;;;;;13.45;3.85;;;;;;;;;;5032714;28;20197;-64
2022/02/01 05:50:53;;;;;;;4.60;1.92;;;;;;;;;;5032996;28;20703;-64
2022/02/01 05:53:20;;;;;;;6.80;3.00;;;;;;;;;;5033000;28;20288;-64
2022/02/01 05:55:48;;;;;;;10.88;2.90;;;;;;;;;;5033524;28;20323;-63
2022/02/01 05:58:17;;;;;;;6.93;2.85;;;;;;;;;;5040984;28;20192;-64
2022/02/01 06:00:45;;;;;;;13.10;2.60;;;;;;;;;;5052893;28;20196;-64
2022/02/01 06:03:12;;;;;;;11.07;2.67;;;;;;;;;;5052473;28;20196;-64
2022/02/01 06:05:40;;;;;;;6.55;2.50;;;;;;;;;;5051962;28;20652;-63
2022/02/01 06:08:07;;;;;;;11.65;2.88;;;;;;;;;;5052397;28;20327;-64
2022/02/01 06:10:34;;;;;;;16.08;3.80;;;;;;;;;;5053166;28;20198;-65
2022/02/01 06:13:02;;;;;;;7.50;2.50;;;;;;;;;;5052708;28;20287;-64
2022/02/01 06:15:30;;;;;;;12.70;2.70;;;;;;;;;;5052985;28;20196;-64
2022/02/01 06:17:58;;;;;;;9.27;2.90;;;;;;;;;;5053325;28;20670;-64
2022/02/01 06:20:26;;;;;;;7.93;2.92;;;;;;;;;;5052518;28;20287;-64
2022/02/01 06:22:53;;;;;;;14.80;3.25;;;;;;;;;;5052834;28;20621;-64
2022/02/01 06:25:39;;;;;;;13.15;4.32;;;;;;;;;;5052484;28;20223;-64
2022/02/01 06:28:06;;;;;;;12.57;3.15;;;;;;;;;;5053752;28;20210;-67
2022/02/01 06:30:34;;;;;;;8.82;3.10;;;;;;;;;;5054073;28;20675;-72
2022/02/01 06:33:02;;;;;;;15.23;4.15;;;;;;;;;;5056181;28;20728;-66
2022/02/01 06:35:30;;;;;;;9.32;3.25;;;;;;;;;;5056044;28;20297;-66
2022/02/01 06:38:03;;;;;;;12.50;2.80;;;;;;;;;;5056120;28;20282;-66
2022/02/01 06:40:33;;;;;;;10.93;3.45;;;;;;;;;;5056656;28;20180;-66
2022/02/01 06:43:09;;;;;;;10.38;2.97;;;;;;;;;;5056254;28;20565;-66
2022/02/01 06:45:40;;;;;;;12.95;3.88;;;;;;;;;;5056384;28;20253;-66
2022/02/01 06:48:07;;;;;;;9.68;2.67;;;;;;;;;;5056303;28;20283;-67
2022/02/01 06:50:36;;;;;;;7.18;3.40;;;;;;;;;;5055835;28;20221;-66
2022/02/01 06:53:04;;;;;;;3.97;2.45;;;;;;;;;;5056004;28;20238;-66
2022/02/01 06:55:35;;;;;;;12.98;2.90;;;;;;;;;;5055727;28;20639;-66
2022/02/01 06:58:18;;;;;;;10.80;3.20;;;;;;;;;;5056544;28;20219;-66
2022/02/01 07:00:48;;;;;;;6.80;3.63;;;;;;;;;;5055799;28;20192;-67
2022/02/01 07:03:18;;;;;;;9.00;3.30;;;;;;;;;;5055706;28;20195;-66
2022/02/01 07:05:46;;;;;;;16.15;3.28;;;;;;;;;;5055480;28;20239;-65
2022/02/01 07:08:14;;;;;;;11.63;3.10;;;;;;;;;;5055705;28;20285;-67
2022/02/01 07:10:45;;;;;;;8.13;3.30;;;;;;;;;;5056452;28;20203;-67
2022/02/01 07:13:16;;;;;;;7.70;3.53;;;;;;;;;;5055927;28;20699;-66
2022/02/01 07:15:45;;;;;;;9.90;3.75;;;;;;;;;;5055371;28;20191;-66
2022/02/01 07:18:15;;;;;;;5.88;3.25;;;;;;;;;;5055720;28;20226;-66
2022/02/01 07:20:44;;;;;;;11.15;4.13;;;;;;;;;;5055878;28;20355;-66
2022/02/01 07:23:15;;;;;;;10.88;3.70;;;;;;;;;;5055625;28;20239;-66
2022/02/01 07:25:47;;;;;;;7.35;3.65;;;;;;;;;;5055848;28;20212;-66
2022/02/01 07:28:16;;;;;;;12.77;3.95;;;;;;;;;;5055328;28;20234;-66
2022/02/01 07:30:44;;;;;;;12.00;3.75;;;;;;;;;;5055972;28;20216;-66
2022/02/01 07:33:11;;;;;;;7.25;3.15;;;;;;;;;;5058086;28;20230;-66
2022/02/01 07:35:39;;;;;;;9.63;4.15;;;;;;;;;;5055347;28;20282;-66
2022/02/01 07:38:08;;;;;;;11.38;3.72;;;;;;;;;;5056295;28;20199;-66
2022/02/01 07:40:40;;;;;;;9.38;4.00;;;;;;;;;;5055466;28;20199;-66
2022/02/01 07:43:07;;;;;;;12.43;4.72;;;;;;;;;;5055239;28;20192;-67
2022/02/01 07:45:37;;;;;;;10.00;4.18;;;;;;;;;;5054935;28;20301;-66
2022/02/01 07:48:05;;;;;;;18.85;5.35;;;;;;;;;;5054598;28;20195;-67
2022/02/01 07:50:32;;;;;;;18.35;5.05;;;;;;;;;;5054666;28;20192;-67
2022/02/01 07:53:01;;;;;;;14.60;4.63;;;;;;;;;;5055220;28;20595;-66
2022/02/01 07:55:29;;;;;;;14.85;3.97;;;;;;;;;;5055330;28;20282;-66
2022/02/01 07:57:57;;;;;;;11.25;4.32;;;;;;;;;;5054791;28;20193;-66
2022/02/01 08:00:25;;;;;;;13.00;4.40;;;;;;;;;;5054850;28;20250;-66
2022/02/01 08:02:55;;;;;;;12.85;4.25;;;;;;;;;;5054460;28;20199;-66
2022/02/01 08:05:22;;;;;;;10.50;3.97;;;;;;;;;;5054334;28;20216;-66
2022/02/01 08:07:50;;;;;;;17.20;5.40;;;;;;;;;;5054699;28;20290;-67
2022/02/01 08:10:19;;;;;;;13.18;5.25;;;;;;;;;;5054499;28;20285;-67
2022/02/01 08:18:31;;;;;;;19.35;5.13;;;;;;;;;;5054502;28;20179;-67
2022/02/01 08:21:02;;;;;;;15.57;5.35;;;;;;;;;;5053900;28;20196;-66
2022/02/01 08:23:30;;;;;;;12.23;4.63;;;;;;;;;;5054751;28;20195;-67
2022/02/01 08:25:59;;;;;;;14.18;5.07;;;;;;;;;;5054112;28;20307;-68
2022/02/01 08:28:26;;;;;;;7.60;3.80;;;;;;;;;;5054295;28;20199;-67
2022/02/01 08:30:54;;;;;;;11.15;4.30;;;;;;;;;;5054332;28;20199;-66
2022/02/01 08:33:23;;;;;;;8.98;4.13;;;;;;;;;;5054633;28;20197;-66
2022/02/01 08:35:50;;;;;;;15.52;5.18;;;;;;;;;;5054437;28;20194;-66
2022/02/01 08:38:18;;;;;;;6.10;5.25;;;;;;;;;;5053991;28;20551;-67
2022/02/01 08:40:46;;;;;;;16.63;6.75;;;;;;;;;;5054533;28;20239;-66
2022/02/01 08:43:15;;;;;;;13.88;5.30;;;;;;;;;;5053928;28;20270;-66
2022/02/01 08:45:43;;;;;;;14.60;5.03;;;;;;;;;;5053878;28;20218;-67
2022/02/01 08:48:10;;;;;;;16.10;5.78;;;;;;;;;;5054245;28;20195;-66
2022/02/01 08:50:38;;;;;;;13.32;7.28;;;;;;;;;;5053902;28;20203;-66
2022/02/01 08:53:14;;;;;;;13.20;7.28;;;;;;;;;;5053546;28;20201;-66
2022/02/01 08:56:01;;;;;;;16.65;6.55;;;;;;;;;;5053275;28;20232;-66
2022/02/01 08:58:30;;;;;;;16.95;7.75;;;;;;;;;;5053961;28;20199;-66
2022/02/01 09:00:58;;;;;;;12.85;7.38;;;;;;;;;;5053368;28;20648;-66
2022/02/01 09:03:25;;;;;;;12.48;6.70;;;;;;;;;;5053599;28;20197;-65
2022/02/01 09:05:53;;;;;;;18.27;8.20;;;;;;;;;;5053196;28;20301;-66
2022/02/01 09:08:21;;;;;;;13.10;7.68;;;;;;;;;;5053991;28;20241;-66
2022/02/01 09:10:48;;;;;;;12.25;8.20;;;;;;;;;;5053895;28;20227;-66
2022/02/01 09:13:15;;;;;;;9.52;6.90;;;;;;;;;;5053988;28;20284;-66
2022/02/01 09:15:44;;;;;;;10.30;9.07;;;;;;;;;;5053386;28;20203;-66
2022/02/01 09:18:11;;;;;;;9.88;5.75;;;;;;;;;;5053801;28;20199;-66
2022/02/01 09:20:38;;;;;;;7.60;6.15;;;;;;;;;;5053439;28;20234;-66
2022/02/01 09:23:06;;;;;;;13.02;8.32;;;;;;;;;;5052487;28;20202;-65
2022/02/01 09:25:33;;;;;;;14.60;9.63;;;;;;;;;;5052979;28;20217;-66
2022/02/01 09:28:00;;;;;;;9.18;7.43;;;;;;;;;;5053356;28;20238;-66
2022/02/01 09:30:27;;;;;;;16.00;9.13;;;;;;;;;;5053247;28;20199;-66
2022/02/01 09:32:56;;;;;;;12.63;9.57;;;;;;;;;;5053428;28;20201;-66
2022/02/01 09:35:23;;;;;;;11.70;9.32;;;;;;;;;;5052964;28;20203;-65
2022/02/01 09:37:51;;;;;;;15.93;10.60;;;;;;;;;;5053427;28;20228;-65
2022/02/01 09:40:18;;;;;;;14.38;10.25;;;;;;;;;;5053194;28;20251;-65
2022/02/01 09:42:45;;;;;;;21.05;11.38;;;;;;;;;;5053173;28;20303;-64
2022/02/01 09:45:13;;;;;;;16.92;11.35;;;;;;;;;;5053093;28;20216;-65
2022/02/01 09:47:43;;;;;;;15.57;10.35;;;;;;;;;;5052950;28;20203;-65
2022/02/01 09:50:11;;;;;;;12.90;7.07;;;;;;;;;;5053150;28;20207;-65
2022/02/01 09:52:39;;;;;;;13.25;11.02;;;;;;;;;;5053080;28;20196;-65
2022/02/01 09:55:09;;;;;;;16.10;11.63;;;;;;;;;;5052980;28;20285;-65
2022/02/01 09:57:36;;;;;;;13.88;10.18;;;;;;;;;;5052805;28;20203;-64
2022/02/01 10:00:10;;;;;;;12.30;8.98;;;;;;;;;;5052906;28;20658;-65
2022/02/01 10:02:38;;;;;;;10.35;7.47;;;;;;;;;;5053212;28;20189;-64
2022/02/01 10:05:07;;;;;;;11.98;6.47;;;;;;;;;;5052979;28;20614;-65
2022/02/01 10:07:46;;;;;;;17.58;10.40;;;;;;;;;;5056561;28;20234;-65
2022/02/01 10:10:13;;;;;;;16.40;11.45;;;;;;;;;;5056952;28;20194;-66
2022/02/01 10:12:42;;;;;;;11.82;10.73;;;;;;;;;;5056930;28;20208;-65
2022/02/01 10:15:19;;;;;;;14.18;10.75;;;;;;;;;;5056460;28;20658;-65
2022/02/01 10:17:49;;;;;;;13.73;10.15;;;;;;;;;;5057028;28;20224;-64
2022/02/01 10:20:16;;;;;;;9.98;8.27;;;;;;;;;;5056190;28;20286;-65
2022/02/01 10:22:46;;;;;;;14.95;11.18;;;;;;;;;;5056345;28;20197;-65
2022/02/01 10:25:31;;;;;;;15.07;10.27;;;;;;;;;;5057147;28;20319;-64
2022/02/01 10:27:59;;;;;;;17.58;11.65;;;;;;;;;;5056918;28;20639;-64
2022/02/01 10:30:33;;;;;;;12.57;10.05;;;;;;;;;;5056999;28;20275;-64
2022/02/01 10:33:19;;;;;;;14.15;11.23;;;;;;;;;;5056937;28;20186;-66
2022/02/01 10:35:57;;;;;;;11.02;7.93;;;;;;;;;;5056331;28;20711;-65
2022/02/01 10:38:31;;;;;;;11.35;9.73;;;;;;;;;;5056437;28;20242;-65
2022/02/01 10:40:59;;;;;;;14.02;11.00;;;;;;;;;;5056387;28;20199;-64
2022/02/01 10:43:27;;;;;;;15.15;10.43;;;;;;;;;;5056316;28;20225;-64
2022/02/01 10:45:55;;;;;;;15.10;10.60;;;;;;;;;;5056483;28;20381;-64
2022/02/01 10:48:24;;;;;;;13.73;10.10;;;;;;;;;;5055717;28;20243;-65
2022/02/01 10:50:53;;;;;;;13.50;9.68;;;;;;;;;;5056219;28;20290;-65
2022/02/01 10:53:20;;;;;;;14.70;9.82;;;;;;;;;;5056295;28;20251;-64
2022/02/01 10:55:51;;;;;;;12.73;9.38;;;;;;;;;;5056372;28;20315;-64
2022/02/01 10:58:19;;;;;;;16.67;9.80;;;;;;;;;;5056161;28;20580;-64
2022/02/01 11:00:48;;;;;;;13.93;8.35;;;;;;;;;;5055854;28;20307;-64
2022/02/01 11:03:17;;;;;;;10.32;8.90;;;;;;;;;;5055548;28;20297;-64
2022/02/01 11:05:48;;;;;;;14.85;9.68;;;;;;;;;;5055709;28;20225;-65
2022/02/01 11:08:16;;;;;;;12.50;8.07;;;;;;;;;;5055820;28;20199;-64
2022/02/01 11:10:46;;;;;;;10.75;8.15;;;;;;;;;;5055698;28;20288;-64
2022/02/01 11:13:15;;;;;;;10.73;8.60;;;;;;;;;;5055819;28;20284;-65
2022/02/01 11:15:56;;;;;;;9.70;8.32;;;;;;;;;;5054971;28;20250;-64
2022/02/01 11:18:26;;;;;;;12.70;8.93;;;;;;;;;;5055700;28;20180;-64
2022/02/01 11:20:54;;;;;;;11.13;8.15;;;;;;;;;;5055309;28;20200;-65
2022/02/01 11:23:22;;;;;;;8.55;7.50;;;;;;;;;;5055655;28;20201;-65
2022/02/01 11:25:55;;;;;;;10.00;9.00;;;;;;;;;;5055389;28;20260;-64
2022/02/01 11:28:43;;;;;;;7.40;6.53;;;;;;;;;;5056042;28;20220;-66
2022/02/01 11:31:10;;;;;;;10.45;7.82;;;;;;;;;;5055363;28;20199;-64
2022/02/01 11:33:39;;;;;;;9.43;6.70;;;;;;;;;;5055024;28;20197;-65
2022/02/01 11:36:08;;;;;;;14.98;8.35;;;;;;;;;;5055036;28;20201;-65
2022/02/01 11:38:35;;;;;;;9.75;7.30;;;;;;;;;;5055264;28;20269;-65
2022/02/01 11:41:06;;;;;;;9.20;5.43;;;;;;;;;;5054822;28;20238;-64
2022/02/01 11:43:35;;;;;;;7.57;6.15;;;;;;;;;;5055175;28;20266;-64
2022/02/01 11:46:06;;;;;;;12.20;6.72;;;;;;;;;;5055399;28;20289;-64
2022/02/01 11:48:34;;;;;;;10.02;7.05;;;;;;;;;;5055609;28;20189;-65
2022/02/01 11:51:02;;;;;;;9.18;6.95;;;;;;;;;;5055255;28;20201;-65
2022/02/01 11:53:31;;;;;;;7.65;6.60;;;;;;;;;;5054915;28;20195;-64
2022/02/01 11:55:59;;;;;;;8.38;6.90;;;;;;;;;;5054748;28;20281;-64
2022/02/01 11:58:31;;;;;;;9.15;7.45;;;;;;;;;;5054586;28;20196;-65
2022/02/01 12:01:00;;;;;;;6.35;5.50;;;;;;;;;;5054435;28;20287;-65
2022/02/01 12:03:28;;;;;;;6.75;5.53;;;;;;;;;;5054690;28;20299;-65
2022/02/01 12:05:59;;;;;;;7.90;6.45;;;;;;;;;;5054678;28;20628;-65
2022/02/01 12:08:31;;;;;;;6.40;5.60;;;;;;;;;;5054727;28;20709;-65
2022/02/01 12:10:59;;;;;;;8.30;6.80;;;;;;;;;;5055425;28;20187;-65
2022/02/01 12:13:27;;;;;;;5.60;5.10;;;;;;;;;;5054608;28;20230;-65
2022/02/01 12:15:55;;;;;;;6.03;5.10;;;;;;;;;;5054852;28;20677;-65
2022/02/01 12:18:29;;;;;;;7.30;5.70;;;;;;;;;;5054506;28;20200;-65
2022/02/01 12:21:04;;;;;;;7.07;5.13;;;;;;;;;;5054459;28;20678;-65
2022/02/01 12:23:32;;;;;;;10.68;6.78;;;;;;;;;;5054409;28;20254;-65
2022/02/01 12:26:00;;;;;;;9.10;6.80;;;;;;;;;;5054631;28;20680;-65
2022/02/01 12:28:28;;;;;;;9.98;7.25;;;;;;;;;;5053523;28;20254;-65
2022/02/01 12:31:07;;;;;;;6.93;6.22;;;;;;;;;;5054000;28;20254;-65
2022/02/01 12:33:36;;;;;;;7.55;6.22;;;;;;;;;;5054251;28;20225;-65
2022/02/01 12:36:03;;;;;;;8.35;6.63;;;;;;;;;;5053871;28;20284;-65
2022/02/01 12:38:31;;;;;;;5.60;4.43;;;;;;;;;;5053750;28;20283;-65
2022/02/01 12:41:02;;;;;;;8.98;6.88;;;;;;;;;;5054775;28;20276;-67
2022/02/01 12:43:43;;;;;;;7.00;5.75;;;;;;;;;;5054538;28;20187;-65
2022/02/01 12:46:30;;;;;;;6.20;5.57;;;;;;;;;;5053665;28;20236;-65
2022/02/01 12:48:59;;;;;;;6.63;4.45;;;;;;;;;;5054104;28;20200;-66
2022/02/01 12:51:26;;;;;;;8.10;5.60;;;;;;;;;;5053790;28;20677;-66
2022/02/01 12:53:53;;;;;;;6.22;5.18;;;;;;;;;;5053403;28;20233;-66
2022/02/01 12:56:22;;;;;;;8.27;5.57;;;;;;;;;;5054454;28;20725;-66
2022/02/01 12:58:56;;;;;;;6.43;5.40;;;;;;;;;;5054496;28;20205;-66
2022/02/01 13:01:34;;;;;;;5.93;5.32;;;;;;;;;;5053728;28;20192;-66
2022/02/01 13:04:03;;;;;;;6.60;5.88;;;;;;;;;;5059915;28;20609;-66
2022/02/01 13:06:33;;;;;;;6.22;5.22;;;;;;;;;;5072974;28;20223;-66
2022/02/01 13:14:44;;;;;;;4.88;4.45;;;;;;;;;;5073167;28;20195;-66
2022/02/01 13:17:23;;;;;;;4.22;3.83;;;;;;;;;;5072856;28;20195;-66
2022/02/01 13:20:06;;;;;;;3.25;2.95;;;;;;;;;;5073511;28;20182;-67
2022/02/01 13:22:34;;;;;;;7.07;5.85;;;;;;;;;;5073351;28;20202;-66
2022/02/01 13:25:02;;;;;;;4.90;4.40;;;;;;;;;;5072602;28;20197;-66
2022/02/01 13:27:29;;;;;;;5.97;3.97;;;;;;;;;;5072893;28;20220;-66
2022/02/01 13:30:01;;;;;;;4.00;3.60;;;;;;;;;;5072882;28;20200;-66
2022/02/01 13:32:35;;;;;;;3.58;3.17;;;;;;;;;;5068598;28;20280;-65
2022/02/01 13:35:05;;;;;;;5.18;4.47;;;;;;;;;;5052512;28;20240;-66
2022/02/01 13:37:33;;;;;;;4.72;3.85;;;;;;;;;;5052666;28;20675;-66
2022/02/01 13:40:00;;;;;;;3.92;3.53;;;;;;;;;;5054584;28;20255;-66
2022/02/01 13:42:32;;;;;;;3.63;3.33;;;;;;;;;;5056627;28;20285;-66
2022/02/01 13:45:00;;;;;;;3.70;3.00;;;;;;;;;;5057339;28;20198;-69
2022/02/01 13:47:37;;;;;;;3.92;3.58;;;;;;;;;;5057557;28;20637;-65
2022/02/01 13:50:08;;;;;;;4.32;3.90;;;;;;;;;;5057408;28;20589;-66
2022/02/01 13:52:35;;;;;;;3.92;3.55;;;;;;;;;;5057326;28;20194;-66
2022/02/01 13:55:02;;;;;;;5.28;4.63;;;;;;;;;;5056891;28;20278;-66
2022/02/01 13:57:31;;;;;;;5.03;4.55;;;;;;;;;;5056824;28;20293;-64
2022/02/01 14:00:10;;;;;;;5.72;5.10;;;;;;;;;;5056693;28;20197;-66
2022/02/01 14:02:43;;;;;;;4.97;4.07;;;;;;;;;;5055921;28;20280;-65
2022/02/01 14:05:22;;;;;;;5.40;4.70;;;;;;;;;;5056602;28;20189;-66
2022/02/01 14:08:06;;;;;;;7.70;6.00;;;;;;;;;;5056677;28;20207;-66
2022/02/01 14:10:44;;;;;;;8.52;4.88;;;;;;;;;;5056895;28;20191;-66
2022/02/01 14:16:21;;;;;;;6.75;5.80;;;;;;;;;;5050977;28;20210;-66
2022/02/01 14:27:31;;;;;;;5.50;5.00;;;;;;;;;;4999963;28;20306;-65
2022/02/01 14:35:28;;;;;;;7.15;5.15;;;;;;;;;;5056408;28;20178;-65
2022/02/01 14:38:07;;;;;;;7.38;5.53;;;;;;;;;;5056587;28;20245;-65
2022/02/01 14:43:36;;;;;;;5.00;4.47;;;;;;;;;;5055656;28;20191;-65
2022/02/01 14:46:03;;;;;;;4.60;4.20;;;;;;;;;;5055828;28;20192;-65
2022/02/01 14:48:33;;;;;;;4.78;4.30;;;;;;;;;;5055883;28;20293;-66
2022/02/01 14:51:00;;;;;;;5.55;3.40;;;;;;;;;;5055467;28;20229;-65
2022/02/01 14:53:29;;;;;;;5.00;4.60;;;;;;;;;;5055928;28;20198;-66
2022/02/01 14:56:08;;;;;;;4.88;3.58;;;;;;;;;;5056829;28;20581;-72
2022/02/01 15:04:14;;;;;;;5.45;3.33;;;;;;;;;;5055173;28;20221;-63
2022/02/01 15:07:03;;;;;;;4.03;3.60;;;;;;;;;;5055825;28;20213;-63
2022/02/01 15:12:38;;;;;;;4.80;2.30;;;;;;;;;;5055615;28;20184;-66
2022/02/01 15:15:07;;;;;;;11.77;4.60;;;;;;;;;;5055530;28;20194;-66
2022/02/01 15:17:34;;;;;;;3.27;2.83;;;;;;;;;;5055866;28;20230;-70
2022/02/01 15:20:01;;;;;;;10.60;4.38;;;;;;;;;;5055165;28;20926;-69
2022/02/01 15:22:29;;;;;;;7.57;3.97;;;;;;;;;;5055042;28;20191;-67
2022/02/01 15:24:58;;;;;;;8.82;3.83;;;;;;;;;;5054895;28;20236;-63
2022/02/01 15:27:25;;;;;;;19.67;5.53;;;;;;;;;;5055098;28;20316;-64
2022/02/01 15:29:52;;;;;;;10.75;5.28;;;;;;;;;;5053954;28;20280;-66
2022/02/01 15:32:20;;;;;;;14.48;5.20;;;;;;;;;;5054902;28;20623;-65
2022/02/01 15:34:47;;;;;;;6.78;4.30;;;;;;;;;;5054792;28;20621;-67
2022/02/01 15:37:15;;;;;;;8.80;5.57;;;;;;;;;;5055241;28;20205;-67
2022/02/01 15:59:14;;;;;;;6.25;3.30;;;;;;;;;;5034553;28;20183;-65
2022/02/01 16:01:44;;;;;;;15.45;5.00;;;;;;;;;;5034594;28;20191;-64
2022/02/01 16:04:13;;;;;;;8.15;4.30;;;;;;;;;;5052165;28;20198;-64
2022/02/01 16:06:44;;;;;;;9.90;4.18;;;;;;;;;;5054549;28;20219;-64
2022/02/01 16:09:18;;;;;;;9.73;4.05;;;;;;;;;;5054869;28;20200;-64
2022/02/01 16:11:47;;;;;;;13.85;4.28;;;;;;;;;;5055026;28;20187;-65
2022/02/01 16:14:16;;;;;;;9.90;3.22;;;;;;;;;;5053959;28;20195;-65
2022/02/01 16:16:43;;;;;;;12.98;4.35;;;;;;;;;;5053901;28;20210;-65
2022/02/01 16:19:13;;;;;;;9.93;4.60;;;;;;;;;;5054449;28;20195;-65
2022/02/01 16:21:46;;;;;;;17.42;3.50;;;;;;;;;;5054424;28;20587;-65
2022/02/01 16:24:13;;;;;;;18.05;5.53;;;;;;;;;;5054044;28;20270;-65
2022/02/01 16:26:42;;;;;;;11.23;4.50;;;;;;;;;;5054060;28;20231;-65
2022/02/01 16:29:09;;;;;;;12.15;4.15;;;;;;;;;;5053985;28;20789;-64
2022/02/01 16:31:40;;;;;;;10.82;3.42;;;;;;;;;;5053955;28;20698;-65
2022/02/01 16:34:07;;;;;;;7.60;3.78;;;;;;;;;;5054484;28;20189;-64
2022/02/01 16:36:36;;;;;;;5.28;3.45;;;;;;;;;;5054286;28;20609;-65
2022/02/01 16:39:05;;;;;;;11.13;4.10;;;;;;;;;;5054131;28;20229;-65
2022/02/01 16:41:33;;;;;;;15.00;4.38;;;;;;;;;;5053961;28;20197;-64
2022/02/01 16:44:02;;;;;;;22.35;4.93;;;;;;;;;;5054285;28;20211;-64
2022/02/01 16:46:35;;;;;;;10.93;4.18;;;;;;;;;;5053708;28;20195;-65